Time;durP1;ratioP1;P1;durP2;ratioP2;P2;SDS_P1;SDS_P2;PMS_P1;PMS_P2;Temp;Humidity;BMP_temperature;BMP_pressure;BME280_temperature;BME280_humidity;BME280_pressure;Samples;Min_cycle;Max_cycle;Signal;HPM_P1;HPM_P2
2023/09/15 00:00:25;;;;;;;2.50;2.40;;;18.10;99.90;;;18.55;77.99;101842.88;5036988;28;20081;-71
2023/09/15 00:02:56;;;;;;;2.63;2.53;;;18.10;99.90;;;18.62;77.83;101841.84;5047368;28;20085;-71
2023/09/15 00:05:28;;;;;;;;;;;18.20;99.90;;;18.69;77.60;101849.72;5044287;28;20147;-70
2023/09/15 00:07:57;;;;;;;2.40;2.30;;;18.30;99.90;;;18.76;77.42;101848.66;5038510;28;19967;-70
2023/09/15 00:10:27;;;;;;;2.50;2.40;;;18.40;99.90;;;18.77;77.30;101846.88;5049384;28;20088;-70
2023/09/15 00:12:56;;;;;;;2.70;2.60;;;18.30;99.90;;;18.81;77.16;101846.75;5040551;28;20764;-70
2023/09/15 00:15:25;;;;;;;2.75;2.65;;;18.40;99.90;;;18.77;77.04;101839.72;5041526;28;20077;-70
2023/09/15 00:17:55;;;;;;;2.72;2.63;;;18.40;99.90;;;18.90;76.75;101849.25;5049038;28;20095;-71
2023/09/15 00:20:25;;;;;;;2.80;2.70;;;18.40;99.90;;;18.97;76.35;101851.78;5037177;28;20037;-71
2023/09/15 00:22:56;;;;;;;2.60;2.50;;;18.50;99.90;;;18.77;76.53;101829.00;5045106;28;20050;-70
2023/09/15 00:25:27;;;;;;;2.65;2.55;;;18.40;99.90;;;18.68;77.34;101849.72;5046029;28;20067;-70
2023/09/15 00:27:58;;;;;;;2.70;2.60;;;18.30;99.90;;;18.79;77.16;101847.72;5036842;28;20068;-70
2023/09/15 00:30:28;;;;;;;2.80;2.70;;;18.30;99.90;;;18.93;76.71;101845.59;5063167;28;20491;-70
2023/09/15 00:32:58;;;;;;;2.40;2.30;;;18.50;99.90;;;19.07;76.25;101847.94;5043385;28;20364;-70
2023/09/15 00:35:28;;;;;;;2.78;2.67;;;18.60;99.90;;;19.15;75.77;101845.97;5048208;28;20060;-70
2023/09/15 00:37:57;;;;;;;2.53;2.42;;;18.80;99.90;;;19.27;75.34;101837.63;5048044;28;20049;-70
2023/09/15 00:40:27;;;;;;;2.58;2.47;;;18.90;99.90;;;19.31;75.10;101840.22;5038033;28;20053;-70
2023/09/15 00:42:55;;;;;;;2.40;2.30;;;18.90;99.90;;;19.37;74.76;101836.53;5067706;28;20048;-71
2023/09/15 00:45:25;;;;;;;2.72;2.63;;;19.00;99.90;;;19.50;74.26;101838.84;5037281;28;20057;-71
2023/09/15 00:47:56;;;;;;;2.60;2.50;;;19.10;99.90;;;19.54;74.18;101839.66;5067037;28;20052;-71
2023/09/15 00:50:31;;;;;;;2.30;2.20;;;19.20;99.90;;;19.62;73.77;101833.19;5044819;28;20124;-71
2023/09/15 00:53:04;;;;;;;2.67;2.58;;;19.30;99.90;;;19.61;73.45;101817.09;5045597;28;20046;-70
2023/09/15 00:55:35;;;;;;;2.45;2.35;;;19.40;99.90;;;19.67;73.25;101815.13;5051786;28;20052;-70
2023/09/15 00:58:08;;;;;;;;;;;19.40;99.90;;;19.75;72.95;101833.72;5047323;28;20095;-70
2023/09/15 01:00:37;;;;;;;2.40;2.30;;;19.50;99.90;;;19.84;72.82;101837.97;5043348;28;19960;-70
2023/09/15 01:03:07;;;;;;;2.42;2.33;;;19.50;99.90;;;19.79;72.87;101838.09;5037870;28;20046;-70
2023/09/15 01:05:36;;;;;;;2.65;2.55;;;19.50;99.90;;;19.75;72.99;101831.91;5048988;28;20053;-70
2023/09/15 01:08:06;;;;;;;2.60;2.50;;;19.40;99.90;;;19.86;72.86;101833.44;5039250;28;20051;-70
2023/09/15 01:10:37;;;;;;;2.40;2.30;;;19.50;99.90;;;19.87;72.86;101829.81;5060829;28;20104;-71
2023/09/15 01:13:07;;;;;;;2.53;2.42;;;19.50;99.90;;;19.88;72.81;101831.59;5052994;28;20045;-70
2023/09/15 01:15:45;;;;;;;2.60;2.50;;;19.50;99.90;;;19.88;72.89;101821.72;5040499;28;20502;-71
2023/09/15 01:18:22;;;;;;;4.63;4.32;;;19.50;99.90;;;19.87;73.03;101819.06;5047276;28;20054;-72
2023/09/15 01:21:45;;;;;;;2.75;2.65;;;19.50;99.90;;;19.75;73.17;101821.19;5051570;28;20072;-71
2023/09/15 01:24:59;;;;;;;2.50;2.40;;;19.40;99.90;;;19.38;73.68;101789.97;5017382;28;20057;-71
2023/09/15 01:27:54;;;;;;;2.60;2.50;;;19.30;99.90;;;19.61;73.98;101817.09;5009071;28;20060;-69
2023/09/15 01:30:26;;;;;;;2.40;2.30;;;19.30;99.90;;;19.62;73.77;101822.44;5044244;28;20041;-70
2023/09/15 01:32:57;;;;;;;2.53;2.42;;;19.30;99.90;;;19.58;73.87;101814.50;5052727;28;20072;-69
2023/09/15 01:35:26;;;;;;;2.80;2.70;;;19.30;99.90;;;19.46;74.01;101806.75;5057043;28;20049;-70
2023/09/15 01:37:54;;;;;;;2.40;2.30;;;19.20;99.90;;;19.47;73.91;101804.03;5056311;28;20090;-69
2023/09/15 01:40:23;;;;;;;2.40;2.30;;;19.20;99.90;;;19.39;74.07;101813.22;5051624;28;20490;-69
2023/09/15 01:42:55;;;;;;;2.60;2.50;;;19.10;99.90;;;19.35;74.39;101800.78;5052608;28;20437;-70
2023/09/15 01:45:26;;;;;;;2.80;2.70;;;19.00;99.90;;;19.48;74.27;101807.59;5040372;28;20049;-69
2023/09/15 01:47:56;;;;;;;2.60;2.50;;;19.10;99.90;;;19.44;74.10;101803.22;5050935;28;20111;-69
2023/09/15 01:50:26;;;;;;;3.00;2.90;;;19.10;99.90;;;19.38;74.21;101800.69;5050243;28;20517;-69
2023/09/15 01:52:55;;;;;;;2.65;2.55;;;19.10;99.90;;;19.49;74.22;101802.19;5039378;28;20552;-69
2023/09/15 01:55:25;;;;;;;2.78;2.67;;;19.10;99.90;;;19.51;74.19;101802.16;5048571;28;20054;-69
2023/09/15 01:57:54;;;;;;;2.70;2.60;;;19.20;99.90;;;19.46;74.04;101791.53;5046831;28;20506;-69
2023/09/15 02:00:22;;;;;;;2.42;2.33;;;19.10;99.90;;;19.46;74.11;101793.34;5055553;28;20042;-69
2023/09/15 02:02:52;;;;;;;2.38;2.28;;;19.10;99.90;;;19.45;74.33;101792.44;5051940;28;20128;-69
2023/09/15 02:05:24;;;;;;;2.53;2.42;;;19.10;99.90;;;19.42;74.25;101791.66;5043174;28;20394;-70
2023/09/15 02:07:54;;;;;;;2.40;2.30;;;19.10;99.90;;;19.39;74.37;101791.75;5041800;28;20045;-69
2023/09/15 02:10:22;;;;;;;16.20;3.42;;;19.10;99.90;;;19.42;74.37;101786.28;5051293;28;20072;-69
2023/09/15 02:12:51;;;;;;;3.10;3.00;;;19.10;99.90;;;19.43;74.45;101788.06;5050968;28;20045;-69
2023/09/15 02:15:19;;;;;;;2.40;2.30;;;19.10;99.90;;;19.46;74.70;101787.97;5044559;28;20094;-69
2023/09/15 02:17:52;;;;;;;2.78;2.67;;;19.10;99.90;;;19.41;74.74;101788.09;5050868;28;20049;-69
2023/09/15 02:20:20;;;;;;;3.10;3.00;;;19.10;99.90;;;19.37;74.93;101782.84;5051151;28;20399;-69
2023/09/15 02:22:51;;;;;;;2.33;2.22;;;19.10;99.90;;;19.36;74.97;101781.97;5041492;28;20135;-69
2023/09/15 02:25:19;;;;;;;2.20;2.10;;;19.00;99.90;;;19.30;75.35;101776.72;5044724;28;20040;-69
2023/09/15 02:27:47;;;;;;;2.45;2.35;;;19.00;99.90;;;19.28;75.24;101781.22;5048688;28;20064;-69
2023/09/15 02:30:16;;;;;;;2.40;2.30;;;19.00;99.90;;;19.28;75.31;101783.06;5038117;28;20471;-69
2023/09/15 02:32:45;;;;;;;2.90;2.80;;;18.90;99.90;;;18.64;75.63;101671.16;5049577;28;20052;-69
2023/09/15 02:35:15;;;;;;;2.20;2.10;;;18.90;99.90;;;19.25;75.61;101775.06;5044865;28;20118;-69
2023/09/15 02:37:44;;;;;;;2.45;2.35;;;18.90;99.90;;;19.23;75.73;101776.91;5039572;28;20049;-69
2023/09/15 02:40:14;;;;;;;2.90;2.80;;;18.90;99.90;;;19.20;75.75;101775.19;5050306;28;20072;-69
2023/09/15 02:42:42;;;;;;;;;;;18.90;99.90;;;19.08;75.81;101750.47;5041575;28;20390;-69
2023/09/15 02:45:12;;;;;;;2.63;2.53;;;18.90;99.90;;;19.13;76.08;101773.59;5057801;28;20400;-69
2023/09/15 02:47:40;;;;;;;2.78;2.67;;;18.80;99.90;;;19.11;76.15;101764.69;5049003;28;20124;-69
2023/09/15 02:50:10;;;;;;;2.20;2.10;;;18.80;99.90;;;18.91;76.39;101773.22;5051989;28;20871;-69
2023/09/15 02:52:40;;;;;;;2.50;2.40;;;18.70;99.90;;;18.92;76.49;101777.69;5060828;28;20052;-69
2023/09/15 02:55:09;;;;;;;2.97;2.88;;;18.60;99.90;;;18.82;76.88;101768.09;5044264;28;20486;-69
2023/09/15 02:57:38;;;;;;;2.58;2.47;;;18.60;99.90;;;18.83;77.27;101766.31;5053078;28;20044;-69
2023/09/15 03:00:15;;;;;;;3.30;3.20;;;18.50;99.90;;;18.72;77.69;101773.69;5036750;28;20040;-69
2023/09/15 03:02:44;;;;;;;2.88;2.78;;;18.50;99.90;;;18.70;77.87;101768.38;5054014;28;20058;-69
2023/09/15 03:05:13;;;;;;;2.53;2.42;;;18.40;99.90;;;18.64;78.14;101781.91;5054998;28;20080;-70
2023/09/15 03:07:43;;;;;;;3.38;3.20;;;18.40;99.90;;;18.49;78.49;101771.53;5049568;28;20057;-69
2023/09/15 03:10:14;;;;;;;2.60;2.50;;;18.20;99.90;;;18.52;78.80;101763.47;5038953;28;20088;-69
2023/09/15 03:12:42;;;;;;;2.92;2.83;;;18.20;99.90;;;18.50;78.76;101759.94;5057760;28;20045;-69
2023/09/15 03:15:11;;;;;;;2.70;2.60;;;18.20;99.90;;;18.45;79.19;101759.13;5047219;28;20114;-68
2023/09/15 03:17:40;;;;;;;2.83;2.72;;;18.20;99.90;;;18.39;79.46;101761.06;5035884;28;20146;-69
2023/09/15 03:20:13;;;;;;;2.58;2.47;;;18.10;99.90;;;18.29;79.88;101746.94;5048677;28;20406;-69
2023/09/15 03:22:43;;;;;;;3.00;2.90;;;18.00;99.90;;;18.44;79.73;101759.19;5044195;28;20053;-69
2023/09/15 03:25:12;;;;;;;2.70;2.60;;;18.10;99.90;;;18.44;79.92;101746.66;5052657;28;20049;-69
2023/09/15 03:27:41;;;;;;;2.58;2.47;;;18.10;99.90;;;18.35;79.61;101724.53;5011098;28;1081056;-69
2023/09/15 03:30:11;;;;;;;4.18;3.88;;;18.20;99.90;;;18.40;79.60;101741.38;5058029;28;20081;-70
2023/09/15 03:32:40;;;;;;;2.53;2.42;;;18.10;99.90;;;18.37;79.87;101745.00;5053326;28;20045;-69
2023/09/15 03:35:10;;;;;;;2.35;2.25;;;18.00;99.90;;;18.34;79.94;101747.75;5050132;28;20057;-69
2023/09/15 03:37:39;;;;;;;2.50;2.40;;;18.10;99.90;;;18.38;80.01;101743.19;5049278;28;20057;-69
2023/09/15 03:40:11;;;;;;;2.50;2.40;;;18.00;99.90;;;18.35;79.98;101749.50;5042101;28;20040;-69
2023/09/15 03:42:40;;;;;;;2.75;2.65;;;18.00;99.90;;;18.30;80.02;101743.38;5069331;28;20064;-69
2023/09/15 03:45:10;;;;;;;3.30;3.17;;;18.00;99.90;;;18.25;80.20;101745.28;5051198;28;20045;-69
2023/09/15 03:47:38;;;;;;;2.80;2.70;;;18.00;99.90;;;18.30;80.17;101748.72;5047590;28;20053;-69
2023/09/15 03:50:09;;;;;;;3.33;3.13;;;18.00;99.90;;;18.23;80.41;101739.06;5042050;28;20291;-69
2023/09/15 03:52:38;;;;;;;2.78;2.67;;;17.90;99.90;;;18.26;80.46;101741.69;5053196;28;20107;-69
2023/09/15 03:55:10;;;;;;;2.60;2.50;;;18.00;99.90;;;18.25;80.36;101741.72;5036781;28;20033;-69
2023/09/15 03:57:38;;;;;;;2.85;2.75;;;17.90;99.90;;;18.31;80.13;101736.22;5045788;28;20049;-69
2023/09/15 04:00:16;;;;;;;2.70;2.60;;;18.00;99.90;;;18.31;80.05;101730.88;5060339;28;20040;-69
2023/09/15 04:02:44;;;;;;;2.53;2.42;;;18.00;99.90;;;18.24;79.91;101723.88;5052550;28;20053;-71
2023/09/15 04:05:12;;;;;;;4.18;3.97;;;18.00;99.90;;;18.20;80.16;101738.25;5037435;28;20144;-71
2023/09/15 04:07:41;;;;;;;2.78;2.67;;;17.90;99.90;;;18.24;79.99;101738.16;5044466;28;20045;-71
2023/09/15 04:10:11;;;;;;;2.70;2.60;;;18.00;99.90;;;18.26;80.19;101740.78;5045247;28;20051;-72
2023/09/15 04:12:42;;;;;;;2.90;2.78;;;18.00;99.90;;;18.28;80.12;101741.63;5067396;28;20493;-71
2023/09/15 04:15:11;;;;;;;2.83;2.72;;;18.00;99.90;;;18.31;80.10;101737.09;5038830;28;20486;-71
2023/09/15 04:17:40;;;;;;;2.95;2.85;;;18.00;99.90;;;18.30;80.10;101729.97;5043343;28;20057;-71
2023/09/15 04:20:10;;;;;;;2.97;2.88;;;18.00;99.90;;;18.29;79.86;101733.56;5046251;28;20402;-71
2023/09/15 04:22:40;;;;;;;2.50;2.40;;;18.00;99.90;;;18.31;79.83;101726.38;5050842;28;20394;-71
2023/09/15 04:25:12;;;;;;;3.90;3.53;;;18.10;99.90;;;18.01;80.07;101729.72;5055031;28;20049;-71
2023/09/15 04:27:41;;;;;;;2.80;2.70;;;17.90;99.90;;;18.04;80.73;101724.28;5065011;28;20061;-71
2023/09/15 04:30:10;;;;;;;2.63;2.53;;;17.80;99.90;;;18.13;80.71;101724.13;5047103;28;20084;-71
2023/09/15 04:32:46;;;;;;;2.50;2.40;;;17.80;99.90;;;18.16;80.56;101726.72;5033246;28;20135;-72
2023/09/15 04:35:14;;;;;;;2.67;2.58;;;17.90;99.90;;;18.19;80.56;101729.34;5040697;28;20079;-71
2023/09/15 04:37:43;;;;;;;2.70;2.60;;;17.90;99.90;;;18.19;80.17;101721.31;5053024;28;20045;-72
2023/09/15 04:40:13;;;;;;;2.65;2.55;;;17.90;99.90;;;18.21;80.10;101726.63;5049127;28;20053;-72
2023/09/15 04:42:42;;;;;;;3.90;3.70;;;17.90;99.90;;;18.18;80.12;101724.88;5063115;28;20099;-71
2023/09/15 04:45:11;;;;;;;2.90;2.70;;;17.90;99.90;;;18.20;80.14;101730.19;5042355;28;20033;-71
2023/09/15 04:47:41;;;;;;;2.80;2.70;;;17.90;99.90;;;18.13;80.14;101716.09;5048469;28;20570;-69
2023/09/15 04:50:22;;;;;;;2.72;2.63;;;17.90;99.90;;;18.16;80.12;101723.16;5049202;28;20033;-69
2023/09/15 04:52:53;;;;;;;2.50;2.40;;;17.80;99.90;;;18.04;80.11;101721.63;5038813;28;20045;-69
2023/09/15 04:55:23;;;;;;;5.38;3.40;;;17.80;99.90;;;17.96;80.45;101716.44;5052218;28;20087;-69
2023/09/15 04:57:51;;;;;;;4.38;3.80;;;17.70;99.90;;;17.80;80.66;101723.03;5051262;28;20465;-69
2023/09/15 05:00:23;;;;;;;2.92;2.83;;;17.60;99.90;;;17.47;81.74;101707.59;5047696;28;20475;-70
2023/09/15 05:02:58;;;;;;;2.78;2.67;;;17.40;99.90;;;17.38;82.59;101725.63;5041208;28;20041;-69
2023/09/15 05:05:29;;;;;;;3.35;3.25;;;17.20;99.90;;;17.38;82.81;101729.16;5047961;28;20050;-69
2023/09/15 05:07:58;;;;;;;3.85;3.55;;;17.20;99.90;;;17.35;82.89;101731.00;5047742;28;20444;-69
2023/09/15 05:10:28;;;;;;;2.80;2.70;;;17.10;99.90;;;17.40;83.35;101732.69;5037825;28;20100;-69
2023/09/15 05:12:57;;;;;;;2.72;2.63;;;17.10;99.90;;;17.39;83.41;101724.69;5068320;28;20077;-69
2023/09/15 05:15:26;;;;;;;3.00;2.90;;;17.10;99.90;;;17.41;83.64;101721.09;5052812;28;20144;-68
2023/09/15 05:17:54;;;;;;;3.85;2.78;;;17.10;99.90;;;17.46;83.23;101731.72;5050495;28;20072;-69
2023/09/15 05:20:22;;;;;;;3.42;3.22;;;17.20;99.90;;;17.13;83.98;101739.41;5047834;28;20426;-68
2023/09/15 05:22:51;;;;;;;2.75;2.65;;;16.90;99.90;;;16.72;85.62;101736.56;5042626;28;20057;-69
2023/09/15 05:25:19;;;;;;;3.15;3.05;;;16.60;99.90;;;16.63;86.56;101744.72;5047956;28;20051;-69
2023/09/15 05:27:49;;;;;;;4.07;3.88;;;16.40;99.90;;;16.78;86.75;101736.44;5047327;28;20065;-69
2023/09/15 05:30:18;;;;;;;2.77;2.67;;;16.50;99.90;;;16.96;86.27;101733.50;5040245;28;20048;-69
2023/09/15 05:32:46;;;;;;;2.72;2.63;;;16.60;99.90;;;17.11;85.98;101730.53;5040061;28;20446;-69
2023/09/15 05:35:14;;;;;;;2.97;2.88;;;16.80;99.90;;;17.10;85.59;101736.81;5047114;28;20083;-69
2023/09/15 05:37:43;;;;;;;3.15;3.05;;;16.80;99.90;;;17.26;85.25;101733.88;5036432;28;20045;-69
2023/09/15 05:40:12;;;;;;;3.08;2.97;;;16.90;99.90;;;17.34;85.18;101742.63;5044353;28;20395;-69
2023/09/15 05:42:41;;;;;;;2.78;2.67;;;17.00;99.90;;;17.35;84.90;101739.94;5043334;28;20134;-69
2023/09/15 05:45:12;;;;;;;2.85;2.75;;;17.10;99.90;;;17.46;84.61;101737.06;5051900;28;20071;-69
2023/09/15 05:47:40;;;;;;;3.15;3.05;;;17.20;99.90;;;17.43;84.12;101731.75;5037020;28;20048;-69
2023/09/15 05:50:09;;;;;;;2.95;2.85;;;17.20;99.90;;;17.38;84.09;101744.34;5043364;28;20414;-69
2023/09/15 05:52:38;;;;;;;4.35;4.15;;;17.20;99.90;;;17.26;84.58;101733.88;5045079;28;20104;-69
2023/09/15 05:55:07;;;;;;;2.97;2.88;;;17.00;99.90;;;17.35;84.54;101744.38;5037051;28;20052;-69
2023/09/15 05:57:36;;;;;;;3.70;3.50;;;17.00;99.90;;;17.48;84.28;101737.94;5049934;28;20403;-69
2023/09/15 06:00:06;;;;;;;2.80;2.70;;;17.20;99.90;;;17.49;83.94;101719.19;5044278;28;20072;-69
2023/09/15 06:02:42;;;;;;;4.03;3.72;;;17.30;99.90;;;17.46;83.58;101740.59;5040703;28;20049;-69
2023/09/15 06:05:10;;;;;;;3.30;3.10;;;17.20;99.90;;;17.28;84.20;101724.91;5051468;28;20394;-69
2023/09/15 06:07:38;;;;;;;3.75;3.55;;;17.20;99.90;;;17.51;83.93;101744.13;5042074;28;20045;-71
2023/09/15 06:10:08;;;;;;;2.80;2.70;;;17.20;99.90;;;17.70;83.93;101748.22;5044159;28;20041;-71
2023/09/15 06:12:36;;;;;;;3.00;2.90;;;17.30;99.90;;;17.75;82.76;101746.31;5051115;28;20045;-71
2023/09/15 06:15:06;;;;;;;3.75;3.50;;;17.50;99.90;;;18.03;82.35;101754.69;5038893;28;20095;-71
2023/09/15 06:17:34;;;;;;;3.45;3.25;;;17.70;99.90;;;18.01;81.88;101757.41;5050551;28;20495;-71
2023/09/15 06:20:05;;;;;;;2.85;2.75;;;17.70;99.90;;;17.89;82.54;101754.97;5046854;28;20176;-71
2023/09/15 06:22:34;;;;;;;2.90;2.80;;;17.60;99.90;;;18.36;81.77;101769.13;5039032;28;20049;-71
2023/09/15 06:25:04;;;;;;;3.72;3.53;;;17.90;99.90;;;18.62;80.68;101764.97;5051523;28;20049;-71
2023/09/15 06:27:33;;;;;;;3.63;3.43;;;18.20;99.90;;;18.72;79.49;101763.84;5034962;28;20135;-71
2023/09/15 06:30:04;;;;;;;3.60;3.42;;;18.30;99.90;;;19.10;78.17;101754.00;5047734;28;20044;-71
2023/09/15 06:32:32;;;;;;;3.05;2.95;;;18.70;99.90;;;19.23;78.12;101752.75;5038776;28;20092;-71
2023/09/15 06:35:01;;;;;;;4.65;4.32;;;18.80;99.90;;;19.47;76.00;101760.22;5049962;28;20487;-72
2023/09/15 06:37:30;;;;;;;3.13;2.92;;;19.10;99.90;;;19.37;76.73;101761.38;5044220;28;20052;-71
2023/09/15 06:39:59;;;;;;;2.77;2.67;;;19.00;99.90;;;19.65;76.04;101757.03;5042041;28;20041;-71
2023/09/15 06:42:27;;;;;;;8.48;4.15;;;19.20;99.90;;;20.04;74.93;101753.22;5051184;28;20287;-71
2023/09/15 06:44:57;;;;;;;2.40;2.30;;;19.70;99.90;;;20.09;73.65;101753.94;5039744;28;20135;-71
2023/09/15 06:47:26;;;;;;;2.90;2.80;;;19.70;99.90;;;20.32;73.80;101748.84;5054938;28;20049;-71
2023/09/15 06:49:54;;;;;;;3.92;3.63;;;19.90;99.90;;;20.35;73.66;101743.34;5041116;28;20390;-71
2023/09/15 06:52:23;;;;;;;4.18;3.90;;;19.90;99.90;;;20.43;72.00;101744.00;5051788;28;20088;-71
2023/09/15 06:54:52;;;;;;;5.63;5.30;;;20.10;99.90;;;20.71;71.96;101751.19;5048636;28;20033;-71
2023/09/15 06:57:21;;;;;;;2.50;2.40;;;20.30;99.90;;;20.81;71.28;101741.91;5044639;28;20049;-71
2023/09/15 06:59:49;;;;;;;2.65;2.55;;;20.40;99.90;;;21.16;70.22;101755.97;5039363;28;20083;-72
2023/09/15 07:02:18;;;;;;;2.40;2.30;;;20.80;99.90;;;21.38;69.70;101754.31;5050236;28;20044;-69
2023/09/15 07:04:46;;;;;;;2.53;2.42;;;21.00;99.90;;;21.26;68.96;101745.78;5040595;28;20110;-69
2023/09/15 07:07:15;;;;;;;5.10;4.80;;;21.00;99.90;;;21.05;69.24;101750.06;5042061;28;20050;-69
2023/09/15 07:09:43;;;;;;;3.58;3.40;;;20.70;99.90;;;20.60;71.49;101749.72;5048836;28;20044;-69
2023/09/15 07:12:13;;;;;;;2.38;2.28;;;20.30;99.90;;;20.76;72.08;101754.59;5037621;28;20949;-69
2023/09/15 07:14:41;;;;;;;2.90;2.80;;;20.30;99.90;;;21.18;70.42;101759.50;5047119;28;20107;-69
2023/09/15 07:17:10;;;;;;;2.33;2.22;;;20.60;99.90;;;20.98;71.45;101767.31;5045491;28;20045;-69
2023/09/15 07:19:44;;;;;;;2.60;2.50;;;20.50;99.90;;;21.19;71.32;101760.38;5049527;28;20060;-69
2023/09/15 07:22:12;;;;;;;3.38;3.17;;;20.70;99.90;;;20.73;70.77;101752.03;5053609;28;20052;-69
2023/09/15 07:24:41;;;;;;;3.85;3.65;;;20.40;99.90;;;20.98;71.41;101748.47;5045876;28;20100;-69
2023/09/15 07:27:10;;;;;;;4.85;4.05;;;20.50;99.90;;;21.07;71.24;101750.91;5046396;28;20226;-69
2023/09/15 07:29:39;;;;;;;3.85;3.60;;;20.60;99.90;;;20.28;73.18;101739.09;5038169;28;20100;-69
2023/09/15 07:32:08;;;;;;;2.70;2.60;;;20.00;99.90;;;20.90;73.42;101744.28;5049460;28;20087;-69
2023/09/15 07:34:36;;;;;;;3.20;3.00;;;20.40;99.90;;;21.37;71.33;101746.25;5041553;28;20049;-69
2023/09/15 07:37:06;;;;;;;2.83;2.72;;;20.90;99.90;;;20.70;72.04;101734.16;5053704;28;20552;-69
2023/09/15 07:39:34;;;;;;;4.47;4.13;;;20.50;99.90;;;20.79;72.01;101714.19;5037263;28;20046;-69
2023/09/15 07:42:07;;;;;;;6.22;5.68;;;20.60;99.90;;;21.14;71.26;101738.09;5049235;28;20053;-69
2023/09/15 07:44:37;;;;;;;4.25;3.95;;;20.70;99.90;;;21.18;69.53;101745.16;5044040;28;20433;-69
2023/09/15 07:47:09;;;;;;;3.95;3.75;;;20.80;99.90;;;20.49;73.57;101727.69;5039663;28;20041;-69
2023/09/15 07:49:38;;;;;;;2.47;2.38;;;20.10;99.90;;;21.04;72.33;101728.59;5050088;28;20461;-69
2023/09/15 07:52:07;;;;;;;5.75;4.72;;;20.50;99.90;;;20.61;71.33;101710.28;5040738;28;20072;-69
2023/09/15 07:54:35;;;;;;;3.22;3.05;;;20.50;99.90;;;20.95;71.85;101731.56;5042395;28;20054;-69
2023/09/15 07:57:04;;;;;;;4.72;4.43;;;20.50;99.90;;;20.70;72.07;101723.41;5048809;28;20044;-69
2023/09/15 07:59:33;;;;;;;7.75;4.78;;;20.30;99.90;;;20.76;74.64;101725.91;5036955;28;20036;-71
2023/09/15 08:02:01;;;;;;;2.97;2.83;;;20.20;99.90;;;21.11;72.06;101730.16;5045750;28;20049;-72
2023/09/15 08:04:31;;;;;;;3.63;3.42;;;20.60;99.90;;;21.34;70.72;101731.13;5044287;28;20041;-72
2023/09/15 08:06:59;;;;;;;4.95;4.38;;;20.80;99.90;;;21.17;72.11;101722.75;5037141;28;20050;-72
2023/09/15 08:09:28;;;;;;;3.92;3.72;;;20.70;99.90;;;20.61;73.10;101721.88;5049006;28;20042;-72
2023/09/15 08:11:59;;;;;;;2.58;2.47;;;20.30;99.90;;;21.38;71.53;101722.00;5041087;28;20037;-72
2023/09/15 08:14:28;;;;;;;4.03;3.72;;;20.90;99.90;;;21.04;70.61;101721.41;5040730;28;20061;-72
2023/09/15 08:16:57;;;;;;;5.10;4.60;;;20.70;99.90;;;21.33;69.72;101720.41;5049327;28;20410;-72
2023/09/15 08:19:27;;;;;;;5.43;3.13;;;20.90;99.90;;;21.55;69.13;101719.59;5037591;28;20090;-72
2023/09/15 08:22:00;;;;;;;9.40;5.47;;;21.10;99.90;;;21.50;69.75;101726.06;5043703;28;20457;-72
2023/09/15 08:24:28;;;;;;;4.38;4.05;;;21.10;99.90;;;21.29;68.94;101722.31;5046927;28;20076;-72
2023/09/15 08:26:57;;;;;;;5.38;4.93;;;20.90;99.90;;;21.37;68.26;101724.72;5049669;28;20453;-72
2023/09/15 08:29:25;;;;;;;2.97;2.88;;;21.00;99.90;;;21.21;70.07;101724.41;5047464;28;20106;-72
2023/09/15 08:31:53;;;;;;;3.88;3.67;;;20.80;99.90;;;21.25;70.36;101728.72;5042542;28;20087;-72
2023/09/15 08:34:22;;;;;;;4.55;4.25;;;20.80;99.90;;;21.18;71.32;101724.50;5039116;28;20056;-72
2023/09/15 08:36:50;;;;;;;8.48;5.70;;;20.70;99.90;;;20.93;69.88;101722.66;5048970;28;20041;-72
2023/09/15 08:39:20;;;;;;;5.60;4.90;;;20.60;99.90;;;21.08;69.62;101724.88;5038627;28;20559;-72
2023/09/15 08:41:55;;;;;;;5.63;4.60;;;20.70;99.90;;;20.83;69.96;101718.53;5048051;28;20402;-72
2023/09/15 08:44:25;;;;;;;2.90;2.80;;;20.50;99.90;;;21.36;70.57;101723.00;5048092;28;20283;-72
2023/09/15 08:46:56;;;;;;;4.80;4.40;;;20.70;99.90;;;20.86;68.02;101715.72;5051672;28;20534;-72
2023/09/15 08:49:25;;;;;;;3.58;3.35;;;20.60;99.90;;;21.15;68.77;101712.97;5045044;28;20049;-72
2023/09/15 08:51:55;;;;;;;2.78;2.67;;;20.80;99.90;;;20.92;68.57;101721.78;5045040;28;20610;-72
2023/09/15 08:54:25;;;;;;;2.70;2.60;;;20.50;99.90;;;21.38;68.50;101727.41;5036551;28;20057;-72
2023/09/15 08:56:54;;;;;;;2.70;2.60;;;20.80;99.90;;;22.11;66.80;101730.97;5048115;28;20053;-72
2023/09/15 08:59:24;;;;;;;2.72;2.63;;;21.50;99.90;;;22.41;64.73;101737.00;5041760;28;20080;-72
2023/09/15 09:01:52;;;;;;;5.00;4.60;;;21.90;99.90;;;21.93;63.96;101731.66;5039472;28;20120;-70
2023/09/15 09:04:21;;;;;;;3.88;3.65;;;21.70;99.90;;;21.44;65.09;101723.59;5048602;28;20053;-69
2023/09/15 09:06:51;;;;;;;6.68;5.65;;;21.20;99.90;;;21.44;63.87;101724.50;5037783;28;20055;-70
2023/09/15 09:09:19;;;;;;;3.20;3.00;;;21.00;99.90;;;21.65;65.45;101720.13;5042241;28;20108;-70
2023/09/15 09:11:49;;;;;;;4.28;3.97;;;21.10;99.90;;;22.14;63.96;101714.69;5045771;28;20122;-70
2023/09/15 09:14:19;;;;;;;3.40;3.17;;;21.60;99.90;;;22.41;62.35;101712.75;5049765;28;20045;-70
2023/09/15 09:16:47;;;;;;;4.85;4.45;;;22.00;99.90;;;21.90;60.25;101694.06;5061504;28;20115;-70
2023/09/15 09:19:16;;;;;;;5.63;4.85;;;21.80;99.90;;;21.56;62.15;101715.94;5042788;28;20402;-70
2023/09/15 09:21:45;;;;;;;5.75;4.82;;;21.20;99.90;;;21.71;62.26;101713.63;5037880;28;20043;-70
2023/09/15 09:24:14;;;;;;;3.42;3.10;;;21.30;99.90;;;21.88;64.66;101705.84;5048600;28;20064;-69
2023/09/15 09:26:55;;;;;;;5.38;4.43;;;21.40;99.90;;;21.97;60.61;101700.97;5039454;28;20487;-70
2023/09/15 09:29:28;;;;;;;8.23;6.13;;;21.50;99.90;;;21.62;59.61;101704.09;5040241;28;20104;-70
2023/09/15 09:31:57;;;;;;;4.30;3.92;;;21.30;99.90;;;21.62;61.28;101696.03;5052682;28;20049;-70
2023/09/15 09:34:25;;;;;;;3.85;3.60;;;21.30;99.90;;;21.93;61.78;101699.34;5041755;28;20486;-69
2023/09/15 09:37:13;;;;;;;4.18;3.88;;;21.40;99.90;;;22.18;58.64;101693.91;5043909;28;20056;-69
2023/09/15 09:39:42;;;;;;;3.38;3.08;;;21.80;99.90;;;22.13;58.44;101694.06;5052598;28;20041;-69
2023/09/15 09:42:13;;;;;;;3.88;3.60;;;21.70;99.90;;;22.23;58.38;101692.78;5040197;28;20394;-69
2023/09/15 09:44:41;;;;;;;7.18;6.22;;;21.80;99.90;;;21.63;58.88;101699.56;5047162;28;20430;-69
2023/09/15 09:47:10;;;;;;;5.72;5.13;;;21.40;99.90;;;21.43;59.14;101700.28;5048588;28;20048;-69
2023/09/15 09:49:41;;;;;;;7.68;5.65;;;21.00;99.90;;;21.23;61.49;101700.13;5039639;28;20033;-70
2023/09/15 09:52:09;;;;;;;;;;;20.90;99.90;;;21.41;59.91;101700.34;5050941;28;20049;-70
2023/09/15 09:54:38;;;;;;;5.28;4.78;;;20.90;99.90;;;21.42;61.47;101690.47;5045237;28;19951;-70
2023/09/15 09:57:07;;;;;;;3.45;3.25;;;21.00;99.90;;;21.74;58.66;101682.06;5041974;28;20037;-69
2023/09/15 09:59:38;;;;;;;6.95;5.63;;;21.20;99.90;;;21.61;58.02;101693.34;5052137;28;20049;-69
2023/09/15 10:02:07;;;;;;;8.13;5.45;;;21.20;99.90;;;21.56;58.61;101688.16;5041624;28;20049;-70
2023/09/15 10:04:35;;;;;;;6.55;4.53;;;21.20;99.90;;;21.54;57.11;101696.28;5045481;28;20479;-69
2023/09/15 10:07:04;;;;;;;4.45;4.15;;;21.10;99.90;;;20.88;59.95;101579.38;5049586;28;20130;-69
2023/09/15 10:09:33;;;;;;;4.13;3.92;;;21.10;99.90;;;21.94;59.16;101686.75;5038471;28;20084;-70
2023/09/15 10:12:03;;;;;;;6.25;5.65;;;21.40;99.90;;;21.77;56.96;101683.78;5050405;28;20049;-69
2023/09/15 10:14:32;;;;;;;5.20;4.67;;;21.40;99.90;;;21.58;58.79;101690.78;5046262;28;20506;-69
2023/09/15 10:17:02;;;;;;;4.50;4.07;;;21.20;99.90;;;21.76;58.75;101684.69;5039988;28;20288;-69
2023/09/15 10:19:31;;;;;;;5.82;4.20;;;21.30;99.90;;;21.97;58.60;101683.94;5051828;28;20041;-70
2023/09/15 10:22:00;;;;;;;3.53;3.22;;;21.50;99.90;;;22.68;56.81;101664.91;5043070;28;20124;-69
2023/09/15 10:24:31;;;;;;;2.60;2.50;;;22.10;99.90;;;22.43;56.23;101660.50;5043376;28;20049;-70